Time;durP1;ratioP1;P1;durP2;ratioP2;P2;SDS_P1;SDS_P2;PMS_P1;PMS_P2;Temp;Humidity;BMP_temperature;BMP_pressure;BME280_temperature;BME280_humidity;BME280_pressure;Samples;Min_cycle;Max_cycle;Signal;HPM_P1;HPM_P2
2024/03/26 00:01:37;;;;;;;8.80;6.10;;;;;;;1.95;90.82;95844.45;108433;1271;25661;-73
2024/03/26 00:04:09;;;;;;;10.40;6.10;;;;;;;1.94;90.95;95845.17;108410;1271;22523;-73
2024/03/26 00:06:42;;;;;;;9.40;5.80;;;;;;;1.90;91.01;95843.56;108409;1278;22526;-73
2024/03/26 00:09:13;;;;;;;11.20;7.10;;;;;;;1.88;90.97;95842.86;108394;1278;22610;-73
2024/03/26 00:11:46;;;;;;;10.30;6.50;;;;;;;1.88;91.12;95843.27;108409;1278;22541;-74
2024/03/26 00:14:27;;;;;;;7.80;5.70;;;;;;;1.88;91.40;95842.08;108363;1271;22525;-74
2024/03/26 00:17:08;;;;;;;10.80;6.30;;;;;;;1.87;91.43;95844.41;108422;1271;22711;-73
2024/03/26 00:19:39;;;;;;;9.70;5.70;;;;;;;1.84;91.37;95840.67;108465;1272;23382;-73
2024/03/26 00:22:12;;;;;;;9.50;5.40;;;;;;;1.83;91.44;95840.85;108407;1278;23908;-73
2024/03/26 00:24:43;;;;;;;9.10;5.60;;;;;;;1.78;91.48;95838.60;108419;1277;22529;-73
2024/03/26 00:27:15;;;;;;;8.60;5.50;;;;;;;1.74;91.71;95839.80;108406;1271;22642;-73
2024/03/26 00:29:48;;;;;;;9.50;5.50;;;;;;;1.74;91.95;95841.94;108458;1278;23867;-73
2024/03/26 00:32:18;;;;;;;10.30;6.50;;;;;;;1.75;92.32;95841.44;108435;1276;25292;-72
2024/03/26 00:34:50;;;;;;;7.50;5.40;;;;;;;1.74;92.46;95837.71;108420;1274;22522;-73
2024/03/26 00:37:23;;;;;;;9.70;6.10;;;;;;;1.73;92.34;95834.27;108460;1278;23872;-73
2024/03/26 00:39:54;;;;;;;8.60;5.90;;;;;;;1.68;92.20;95840.19;108413;1278;22596;-73
2024/03/26 00:42:25;;;;;;;11.00;7.10;;;;;;;1.57;92.03;95840.92;108410;1277;22787;-73
2024/03/26 00:44:55;;;;;;;9.40;6.10;;;;;;;1.48;91.85;95841.68;108456;1271;22603;-73
2024/03/26 00:47:30;;;;;;;8.90;5.30;;;;;;;1.40;92.04;95838.37;108441;1277;22525;-73
2024/03/26 00:50:00;;;;;;;8.30;5.90;;;;;;;1.36;92.17;95841.08;108455;1272;22529;-73
2024/03/26 00:52:32;;;;;;;8.70;5.20;;;;;;;1.32;92.22;95844.79;108422;1277;23767;-73
2024/03/26 00:55:08;;;;;;;9.70;6.20;;;;;;;1.32;92.46;95843.48;108405;1277;23882;-73
2024/03/26 00:57:43;;;;;;;8.50;5.20;;;;;;;1.39;92.66;95845.83;108437;1277;22532;-73
2024/03/26 01:00:16;;;;;;;8.10;5.20;;;;;;;1.41;92.67;95846.35;108401;1277;22547;-73
2024/03/26 01:02:51;;;;;;;9.00;5.70;;;;;;;1.42;92.61;95847.61;108497;1272;22534;-73
2024/03/26 01:05:22;;;;;;;8.30;4.50;;;;;;;1.48;92.73;95848.20;108432;1278;22666;-73
2024/03/26 01:07:55;;;;;;;7.60;4.80;;;;;;;1.46;92.48;95856.23;108464;1278;24359;-73
2024/03/26 01:10:31;;;;;;;9.00;5.60;;;;;;;1.40;92.36;95852.16;108420;1278;22524;-73
2024/03/26 01:13:02;;;;;;;8.00;4.60;;;;;;;1.39;92.48;95857.15;108405;1278;22527;-73
2024/03/26 01:15:36;;;;;;;6.60;4.10;;;;;;;1.39;92.50;95858.77;108503;1277;22524;-73
2024/03/26 01:18:11;;;;;;;6.70;4.30;;;;;;;1.36;92.52;95855.66;108433;1278;22523;-73
2024/03/26 01:20:45;;;;;;;5.60;3.70;;;;;;;1.35;92.34;95856.53;108451;1278;22629;-73
2024/03/26 01:23:18;;;;;;;8.00;4.60;;;;;;;1.34;92.67;95855.10;108412;1271;22533;-73
2024/03/26 01:25:50;;;;;;;5.70;3.80;;;;;;;1.38;92.59;95858.45;108444;1276;22526;-73
2024/03/26 01:28:23;;;;;;;5.90;4.20;;;;;;;1.37;92.55;95857.70;108431;1278;22541;-73
2024/03/26 01:30:56;;;;;;;5.70;3.80;;;;;;;1.36;92.55;95857.38;108407;1277;23822;-73
2024/03/26 01:33:32;;;;;;;6.50;4.20;;;;;;;1.34;92.47;95860.73;108426;1277;22646;-74
2024/03/26 01:36:03;;;;;;;6.50;4.80;;;;;;;1.32;92.47;95863.23;108414;1271;22583;-73
2024/03/26 01:38:39;;;;;;;6.70;4.80;;;;;;;1.32;92.75;95866.46;108464;1278;23409;-73
2024/03/26 01:41:15;;;;;;;8.40;4.80;;;;;;;1.29;92.57;95864.23;108467;1278;22541;-73
2024/03/26 01:43:51;;;;;;;7.70;4.90;;;;;;;1.26;92.56;95861.48;108386;1278;22560;-73
2024/03/26 01:46:24;;;;;;;7.60;4.90;;;;;;;1.23;92.57;95866.05;108429;1271;22532;-73
2024/03/26 01:48:59;;;;;;;7.30;5.10;;;;;;;1.21;92.73;95868.73;108420;1278;22535;-74
2024/03/26 01:51:35;;;;;;;7.00;4.60;;;;;;;1.19;92.90;95864.02;108425;1277;22546;-73
2024/03/26 01:54:11;;;;;;;7.60;5.00;;;;;;;1.18;92.88;95864.94;108407;1277;24975;-74
2024/03/26 01:56:45;;;;;;;7.00;4.40;;;;;;;1.22;93.07;95861.75;108468;1277;22676;-73
2024/03/26 01:59:18;;;;;;;6.20;4.00;;;;;;;1.26;93.17;95864.01;108407;1271;22518;-73
2024/03/26 02:01:54;;;;;;;6.80;4.40;;;;;;;1.28;93.13;95862.39;108414;1277;22530;-73
2024/03/26 02:04:25;;;;;;;5.80;4.40;;;;;;;1.26;92.89;95859.36;108356;1271;22529;-73
2024/03/26 02:06:56;;;;;;;7.70;4.60;;;;;;;1.26;93.15;95861.48;108394;1277;22542;-73
2024/03/26 02:09:33;;;;;;;7.30;4.90;;;;;;;1.24;92.97;95861.30;108371;1271;25511;-73
2024/03/26 02:12:06;;;;;;;7.20;5.00;;;;;;;1.23;93.06;95863.44;108414;1277;24455;-73
2024/03/26 02:14:37;;;;;;;6.60;4.10;;;;;;;1.23;93.04;95864.27;108384;1278;22612;-73
2024/03/26 02:17:08;;;;;;;5.50;3.80;;;;;;;1.18;92.87;95863.42;108457;1277;25278;-73
2024/03/26 02:19:39;;;;;;;5.50;3.80;;;;;;;1.15;92.73;95856.29;108427;1278;22710;-74
2024/03/26 02:22:12;;;;;;;6.10;4.40;;;;;;;1.16;92.82;95856.61;108405;1278;22566;-73
2024/03/26 02:24:43;;;;;;;6.60;4.60;;;;;;;1.20;92.92;95858.54;108390;1276;22521;-74
2024/03/26 02:27:21;;;;;;;7.30;4.20;;;;;;;1.24;92.99;95860.27;108429;1278;22525;-73
2024/03/26 02:29:54;;;;;;;6.80;4.40;;;;;;;1.22;92.80;95860.13;108488;1270;25342;-73
2024/03/26 02:32:28;;;;;;;6.50;4.30;;;;;;;1.03;91.66;95862.60;108416;1271;25890;-73
2024/03/26 02:35:01;;;;;;;5.60;4.00;;;;;;;0.95;92.00;95859.84;108424;1271;23029;-73
2024/03/26 02:37:31;;;;;;;5.90;4.10;;;;;;;0.89;92.15;95855.28;108469;1277;22567;-74
2024/03/26 02:40:05;;;;;;;5.50;3.50;;;;;;;0.92;92.68;95853.44;108412;1278;25248;-73
2024/03/26 02:42:38;;;;;;;4.70;3.40;;;;;;;1.00;92.70;95849.51;108416;1274;22541;-73
2024/03/26 02:45:11;;;;;;;6.00;4.10;;;;;;;1.02;92.77;95847.52;108371;1277;22525;-73
2024/03/26 02:47:44;;;;;;;4.40;3.50;;;;;;;1.03;92.65;95849.81;108473;1278;25243;-73
2024/03/26 02:50:17;;;;;;;8.00;4.30;;;;;;;1.00;92.24;95855.09;108461;1254;22523;-72
2024/03/26 02:52:48;;;;;;;5.40;3.90;;;;;;;0.97;92.40;95859.10;108426;1271;22525;-74
2024/03/26 02:55:22;;;;;;;5.90;3.90;;;;;;;0.96;92.56;95860.38;108390;1276;26675;-73
2024/03/26 02:57:55;;;;;;;6.80;3.80;;;;;;;0.99;92.60;95865.14;108406;1278;22613;-73
2024/03/26 03:00:25;;;;;;;4.30;3.20;;;;;;;1.01;92.62;95864.30;108440;1275;25323;-73
2024/03/26 03:02:58;;;;;;;6.80;4.20;;;;;;;1.03;92.70;95862.71;108431;1278;22525;-73
2024/03/26 03:05:30;;;;;;;5.80;3.70;;;;;;;1.04;92.51;95862.05;108349;1271;22515;-73
2024/03/26 03:08:05;;;;;;;5.10;3.50;;;;;;;1.03;92.49;95865.38;108417;1277;25424;-73
2024/03/26 03:10:39;;;;;;;4.70;3.40;;;;;;;1.02;92.61;95866.98;108421;1277;22487;-73
2024/03/26 03:13:14;;;;;;;5.50;3.80;;;;;;;1.03;92.46;95869.29;108396;1278;26552;-73
2024/03/26 03:15:47;;;;;;;4.20;3.50;;;;;;;1.01;92.45;95863.47;108405;1271;22532;-73
2024/03/26 03:18:19;;;;;;;5.70;3.80;;;;;;;0.98;92.35;95869.05;108459;1278;22897;-73
2024/03/26 03:20:49;;;;;;;5.80;4.20;;;;;;;0.95;92.32;95871.48;108448;1272;22521;-73
2024/03/26 03:23:22;;;;;;;6.50;3.70;;;;;;;0.92;92.34;95869.79;108434;1271;22535;-74
2024/03/26 03:25:59;;;;;;;5.40;3.60;;;;;;;0.92;92.46;95869.10;108449;1278;22529;-73
2024/03/26 03:28:32;;;;;;;4.80;3.40;;;;;;;0.93;92.60;95863.53;108426;1272;26586;-73
2024/03/26 03:31:07;;;;;;;5.30;3.50;;;;;;;0.95;92.54;95862.61;108427;1278;25453;-73
2024/03/26 03:33:40;;;;;;;4.60;3.30;;;;;;;0.96;92.34;95859.81;108430;1257;22537;-73
2024/03/26 03:36:13;;;;;;;5.40;3.50;;;;;;;0.94;92.17;95853.73;108406;1279;24325;-73
2024/03/26 03:38:43;;;;;;;4.90;3.60;;;;;;;0.94;92.40;95856.81;108403;1278;22688;-73
2024/03/26 03:41:19;;;;;;;4.10;2.90;;;;;;;0.98;92.67;95853.75;108439;1278;22505;-74
2024/03/26 03:43:53;;;;;;;4.30;2.80;;;;;;;0.99;92.25;95853.77;108424;1271;23752;-73
2024/03/26 03:46:24;;;;;;;3.30;2.70;;;;;;;0.98;92.30;95854.79;108421;1270;22615;-73
2024/03/26 03:49:00;;;;;;;4.80;3.60;;;;;;;0.99;92.35;95856.06;108424;1278;24226;-73
2024/03/26 03:51:33;;;;;;;4.30;3.20;;;;;;;1.02;92.56;95853.88;108402;1270;22526;-73
2024/03/26 03:54:04;;;;;;;4.20;2.80;;;;;;;1.05;92.61;95856.68;108395;1271;22600;-73
2024/03/26 03:56:35;;;;;;;3.30;2.70;;;;;;;1.06;92.17;95863.23;108468;1271;22536;-73
2024/03/26 03:59:06;;;;;;;6.10;3.70;;;;;;;1.01;92.01;95868.22;108368;1275;25302;-74
2024/03/26 04:01:37;;;;;;;5.00;4.00;;;;;;;0.98;91.99;95869.45;108387;1278;23311;-73
2024/03/26 04:04:08;;;;;;;4.10;2.90;;;;;;;0.96;92.15;95863.27;108396;1278;22516;-73
2024/03/26 04:06:45;;;;;;;4.00;2.90;;;;;;;0.88;91.84;95864.49;108406;1279;22606;-72
2024/03/26 04:09:18;;;;;;;5.00;3.60;;;;;;;0.86;92.22;95869.38;108444;1278;23765;-73
2024/03/26 04:11:51;;;;;;;4.90;3.60;;;;;;;0.83;92.29;95871.23;108363;1278;23427;-73
2024/03/26 04:14:26;;;;;;;5.00;3.10;;;;;;;0.80;92.25;95875.26;108395;1278;22738;-73
2024/03/26 04:16:59;;;;;;;4.20;3.20;;;;;;;0.80;92.30;95875.19;108452;1277;22579;-73
2024/03/26 04:19:30;;;;;;;5.50;3.10;;;;;;;0.74;92.25;95875.73;108459;1277;22563;-73
2024/03/26 04:22:00;;;;;;;4.90;3.20;;;;;;;0.68;92.40;95877.44;108448;1271;25234;-73
2024/03/26 04:24:34;;;;;;;5.40;3.10;;;;;;;0.67;92.23;95873.34;108425;1277;26135;-73
2024/03/26 04:27:05;;;;;;;3.80;2.90;;;;;;;0.68;92.38;95870.95;108449;1277;22519;-73
2024/03/26 04:29:36;;;;;;;5.40;3.70;;;;;;;0.68;92.49;95867.15;108396;1274;22533;-72
2024/03/26 04:32:07;;;;;;;5.20;3.20;;;;;;;0.69;92.59;95863.20;108368;1277;26667;-72
2024/03/26 04:34:38;;;;;;;4.60;3.20;;;;;;;0.70;92.51;95864.05;108403;1277;22523;-72
2024/03/26 04:37:13;;;;;;;5.20;3.30;;;;;;;0.71;92.49;95864.92;108436;1277;24434;-72
2024/03/26 04:39:46;;;;;;;4.80;3.70;;;;;;;0.73;92.61;95860.47;108412;1271;22543;-72
2024/03/26 04:42:19;;;;;;;4.60;3.30;;;;;;;0.86;93.28;95860.12;108392;1277;22528;-72
2024/03/26 04:44:52;;;;;;;4.90;3.80;;;;;;;1.24;93.36;95860.38;108419;1277;22627;-72
2024/03/26 04:47:25;;;;;;;3.60;2.90;;;;;;;1.58;92.98;95858.60;108411;1276;24673;-72
2024/03/26 04:49:57;;;;;;;2.70;2.40;;;;;;;2.00;93.00;95860.00;108440;1276;22789;-73
2024/03/26 04:52:31;;;;;;;6.10;3.00;;;;;;;2.47;92.47;95859.20;108425;1277;22776;-74
2024/03/26 04:55:02;;;;;;;4.20;3.30;;;;;;;2.82;91.65;95861.19;108373;1277;22530;-73
2024/03/26 04:57:36;;;;;;;5.30;3.10;;;;;;;3.25;91.37;95860.68;108468;1277;22567;-73
2024/03/26 05:00:15;;;;;;;4.30;3.20;;;;;;;3.67;90.25;95861.66;108406;1277;24002;-73
2024/03/26 05:02:47;;;;;;;3.50;2.80;;;;;;;3.95;89.45;95863.62;108434;1277;22523;-73
2024/03/26 05:05:18;;;;;;;3.40;2.70;;;;;;;4.18;88.77;95867.98;108375;1271;24183;-73
2024/03/26 05:07:51;;;;;;;4.10;3.10;;;;;;;4.43;88.75;95865.20;108426;1277;24987;-73
2024/03/26 05:10:24;;;;;;;2.80;2.40;;;;;;;4.91;88.91;95867.33;108396;1271;22586;-73
2024/03/26 05:12:54;;;;;;;3.00;2.60;;;;;;;5.51;87.66;95865.90;108385;1277;22588;-73
2024/03/26 05:15:25;;;;;;;3.50;2.90;;;;;;;5.72;86.32;95866.40;108413;1277;22682;-73
2024/03/26 05:17:58;;;;;;;3.90;2.90;;;;;;;6.16;86.30;95865.17;108407;1277;25035;-73
2024/03/26 05:20:31;;;;;;;4.90;3.70;;;;;;;6.60;85.15;95871.66;108420;1276;22566;-73
2024/03/26 05:23:05;;;;;;;3.20;2.90;;;;;;;7.03;85.01;95871.41;108447;1274;24323;-73
2024/03/26 05:25:36;;;;;;;4.40;3.20;;;;;;;7.72;84.50;95871.17;108428;1277;22577;-74
2024/03/26 05:28:08;;;;;;;5.10;3.80;;;;;;;7.96;82.32;95867.55;108423;1277;23977;-73
2024/03/26 05:30:41;;;;;;;6.00;4.10;;;;;;;7.62;80.68;95874.42;108423;1271;22539;-74
2024/03/26 05:33:14;;;;;;;4.80;3.90;;;;;;;7.82;79.98;95871.40;108415;1278;22519;-74
2024/03/26 05:35:46;;;;;;;5.60;4.40;;;;;;;8.25;80.01;95866.63;108452;1277;25452;-74
2024/03/26 05:38:17;;;;;;;5.00;4.50;;;;;;;9.27;80.79;95867.05;108403;1278;24178;-74
2024/03/26 05:40:48;;;;;;;4.90;4.30;;;;;;;10.01;78.65;95866.34;108402;1278;24161;-74
2024/03/26 05:43:18;;;;;;;5.60;4.60;;;;;;;10.21;75.94;95861.80;108388;1278;22792;-74
2024/03/26 05:45:50;;;;;;;6.10;4.90;;;;;;;10.28;74.74;95864.11;108426;1277;22529;-74
2024/03/26 05:48:21;;;;;;;5.30;4.70;;;;;;;10.39;73.07;95866.45;108467;1278;25407;-74
2024/03/26 05:50:54;;;;;;;5.90;5.30;;;;;;;10.45;71.59;95862.59;108411;1271;22910;-74
2024/03/26 05:53:25;;;;;;;6.70;5.60;;;;;;;10.49;71.00;95865.48;108388;1278;23821;-74
2024/03/26 05:55:56;;;;;;;6.90;5.40;;;;;;;10.83;70.62;95861.42;108423;1276;24304;-74
2024/03/26 05:58:27;;;;;;;6.10;5.20;;;;;;;11.10;69.94;95863.60;108436;1270;22544;-74
2024/03/26 06:01:04;;;;;;;6.60;5.40;;;;;;;11.53;68.65;95866.50;108403;1278;22525;-74
2024/03/26 06:03:41;;;;;;;7.20;5.60;;;;;;;11.64;67.49;95871.08;108378;1278;24958;-74
2024/03/26 06:06:12;;;;;;;6.80;5.70;;;;;;;11.85;66.15;95868.67;108305;1278;169336;-74
2024/03/26 06:08:43;;;;;;;8.00;6.10;;;;;;;11.84;65.28;95874.90;108401;1271;22751;-74
2024/03/26 06:11:14;;;;;;;7.20;5.90;;;;;;;12.02;64.09;95871.48;108405;1271;25224;-74
2024/03/26 06:13:47;;;;;;;8.20;6.60;;;;;;;12.20;64.04;95870.86;108147;1280;22539;-74
2024/03/26 06:16:20;;;;;;;7.10;6.20;;;;;;;12.85;64.39;95867.64;108227;1279;26921;-74
2024/03/26 06:18:52;;;;;;;6.90;5.80;;;;;;;13.48;63.56;95865.64;108247;1279;22521;-74
2024/03/26 06:21:24;;;;;;;6.40;5.10;;;;;;;14.25;62.86;95864.23;108207;1279;26449;-74
2024/03/26 06:23:58;;;;;;;6.50;5.60;;;;;;;14.83;62.01;95866.02;108228;1280;22523;-74
2024/03/26 06:26:32;;;;;;;7.70;5.80;;;;;;;15.20;60.68;95869.92;108217;1279;25363;-74
2024/03/26 06:29:05;;;;;;;7.50;6.30;;;;;;;15.68;59.68;95870.51;108236;1279;25507;-74
2024/03/26 06:31:36;;;;;;;7.00;5.70;;;;;;;15.94;58.69;95870.89;108246;1274;25433;-75
2024/03/26 06:34:08;;;;;;;6.00;5.30;;;;;;;16.32;58.10;95866.88;108168;1279;22877;-74
2024/03/26 06:36:42;;;;;;;7.30;5.60;;;;;;;15.92;54.59;95867.06;108250;1258;22814;-74
2024/03/26 06:39:18;;;;;;;5.90;5.30;;;;;;;15.36;53.48;95867.36;108249;1277;22532;-74
2024/03/26 06:41:49;;;;;;;5.50;4.90;;;;;;;15.19;54.25;95863.96;108208;1277;22542;-74
2024/03/26 06:44:21;;;;;;;5.80;4.80;;;;;;;15.50;53.57;95867.88;108218;1280;26925;-74
2024/03/26 06:46:54;;;;;;;5.60;4.90;;;;;;;16.60;55.09;95861.17;108235;1279;22578;-74
2024/03/26 06:49:27;;;;;;;7.20;5.80;;;;;;;17.38;52.66;95860.11;108244;1279;25226;-74
2024/03/26 06:51:58;;;;;;;7.40;5.80;;;;;;;17.90;53.24;95858.27;108247;1279;23854;-73
2024/03/26 06:54:32;;;;;;;6.20;5.50;;;;;;;19.00;53.28;95853.65;108236;1280;22537;-74
2024/03/26 06:57:03;;;;;;;6.40;5.20;;;;;;;19.66;51.09;95855.85;108272;1279;22532;-74
2024/03/26 06:59:36;;;;;;;5.70;4.60;;;;;;;19.30;49.77;95854.77;108206;1274;25290;-74
2024/03/26 07:02:10;;;;;;;5.60;5.00;;;;;;;19.48;49.14;95855.31;108246;1279;26716;-74
2024/03/26 07:04:41;;;;;;;6.00;5.20;;;;;;;19.06;47.65;95856.88;108243;1280;23900;-74
2024/03/26 07:07:15;;;;;;;6.50;5.50;;;;;;;18.58;47.01;95859.13;108222;1273;22525;-74
2024/03/26 07:09:46;;;;;;;6.30;5.40;;;;;;;18.80;47.93;95859.28;108238;1279;22525;-74
2024/03/26 07:12:20;;;;;;;7.80;6.40;;;;;;;19.12;46.78;95862.92;108229;1276;22534;-74
2024/03/26 07:14:56;;;;;;;6.90;6.30;;;;;;;19.37;46.80;95860.70;108419;1278;22616;-74
2024/03/26 07:17:28;;;;;;;6.60;5.90;;;;;;;19.41;45.84;95861.84;108350;1272;25450;-74
2024/03/26 07:19:58;;;;;;;7.30;6.60;;;;;;;19.42;45.97;95856.89;108402;1277;24214;-75
2024/03/26 07:22:31;;;;;;;7.00;6.30;;;;;;;19.79;45.67;95863.00;108388;1276;23809;-74
2024/03/26 07:25:02;;;;;;;6.90;6.20;;;;;;;19.65;44.39;95863.33;108418;1277;22506;-74
2024/03/26 07:27:36;;;;;;;6.00;5.40;;;;;;;19.32;44.18;95862.42;108389;1278;22607;-75
2024/03/26 07:30:10;;;;;;;7.70;6.90;;;;;;;19.21;44.04;95862.20;108352;1277;22529;-74
2024/03/26 07:32:43;;;;;;;7.50;6.70;;;;;;;19.83;44.12;95858.70;108466;1278;22625;-75
2024/03/26 07:35:16;;;;;;;6.80;6.10;;;;;;;20.17;43.81;95858.23;108405;1278;22536;-75
2024/03/26 07:37:51;;;;;;;7.40;6.60;;;;;;;20.79;43.77;95855.05;108415;1256;22623;-74
2024/03/26 07:40:22;;;;;;;6.20;5.60;;;;;;;21.27;43.54;95845.66;108411;1271;22603;-74
2024/03/26 07:42:54;;;;;;;6.20;5.60;;;;;;;21.42;42.65;95846.02;108359;1278;25957;-74
2024/03/26 07:45:25;;;;;;;6.50;5.80;;;;;;;21.48;42.18;95842.31;108428;1267;24219;-75
2024/03/26 07:47:56;;;;;;;5.90;5.30;;;;;;;21.90;42.51;95837.39;108408;1278;22656;-74
2024/03/26 07:50:29;;;;;;;6.90;5.90;;;;;;;22.52;42.05;95834.75;108372;1278;25293;-75
2024/03/26 07:53:00;;;;;;;5.20;4.70;;;;;;;22.28;41.03;95838.10;108453;1278;22663;-74
2024/03/26 07:55:32;;;;;;;6.00;5.40;;;;;;;22.76;41.23;95833.63;108400;1279;23032;-75
2024/03/26 07:58:04;;;;;;;5.20;4.70;;;;;;;22.93;40.72;95827.58;108417;1278;22522;-74
2024/03/26 08:00:35;;;;;;;5.70;5.00;;;;;;;22.95;40.34;95825.88;108393;1278;24750;-74
2024/03/26 08:03:07;;;;;;;6.00;5.30;;;;;;;23.32;40.03;95823.70;108395;1277;22550;-75
2024/03/26 08:05:43;;;;;;;6.50;5.80;;;;;;;23.64;39.25;95819.29;108376;1271;22518;-74
2024/03/26 08:08:14;;;;;;;5.70;5.10;;;;;;;22.38;37.34;95817.70;108405;1271;24213;-74
2024/03/26 08:10:47;;;;;;;5.80;5.10;;;;;;;21.31;38.12;95813.04;108425;1276;22573;-74
2024/03/26 08:13:18;;;;;;;6.90;6.20;;;;;;;21.71;40.10;95812.57;108330;1274;22658;-74
2024/03/26 08:15:51;;;;;;;6.90;4.90;;;;;;;22.66;38.91;95809.54;108418;1271;22535;-74
2024/03/26 08:18:24;;;;;;;5.40;4.50;;;;;;;22.96;39.00;95802.88;108366;1278;26436;-74
2024/03/26 08:20:56;;;;;;;4.70;3.90;;;;;;;24.00;39.37;95804.53;108449;1278;22639;-74
2024/03/26 08:23:27;;;;;;;5.00;3.60;;;;;;;24.93;38.60;95799.05;108365;1278;23283;-74
2024/03/26 08:26:00;;;;;;;4.40;4.00;;;;;;;25.15;37.71;95794.61;108415;1271;22578;-74
2024/03/26 08:28:31;;;;;;;5.30;4.00;;;;;;;25.33;37.20;95790.90;108420;1271;24186;-74
2024/03/26 08:31:03;;;;;;;4.60;4.00;;;;;;;25.57;37.68;95789.48;108435;1271;23204;-74
2024/03/26 08:33:34;;;;;;;5.10;4.30;;;;;;;26.42;37.98;95792.85;108334;1278;22532;-74
2024/03/26 08:36:06;;;;;;;5.20;4.10;;;;;;;27.17;37.47;95789.84;108367;1278;25520;-74
2024/03/26 08:38:39;;;;;;;5.60;4.20;;;;;;;27.60;36.56;95782.65;108366;1271;22522;-74
2024/03/26 08:41:10;;;;;;;5.10;4.10;;;;;;;27.53;36.55;95782.34;108373;1279;24219;-74
2024/03/26 08:43:40;;;;;;;5.50;4.40;;;;;;;27.49;36.30;95783.95;108380;1278;22509;-74
2024/03/26 08:46:13;;;;;;;6.00;4.50;;;;;;;26.91;35.86;95780.62;108417;1278;23891;-74
2024/03/26 08:48:46;;;;;;;4.90;2.80;;;;;;;26.73;35.87;95781.48;108387;1278;22557;-74
2024/03/26 08:51:17;;;;;;;3.20;2.70;;;;;;;26.53;35.65;95780.34;108384;1278;22563;-74
2024/03/26 08:53:48;;;;;;;3.70;3.20;;;;;;;25.12;34.10;95779.98;108376;1279;22656;-74
2024/03/26 08:56:19;;;;;;;3.60;2.50;;;;;;;23.57;34.87;95784.05;108411;1279;22634;-74
2024/03/26 08:58:55;;;;;;;4.40;3.10;;;;;;;22.90;36.22;95773.88;108445;1278;22595;-74
2024/03/26 09:01:28;;;;;;;5.60;3.80;;;;;;;21.98;36.10;95775.63;108413;1277;24202;-74
2024/03/26 09:04:01;;;;;;;3.10;2.40;;;;;;;20.69;36.96;95771.10;108339;1271;24485;-73
2024/03/26 09:06:34;;;;;;;3.60;2.70;;;;;;;20.12;37.58;95771.52;108390;1277;27164;-74
2024/03/26 09:09:07;;;;;;;3.10;2.40;;;;;;;19.09;37.00;95773.56;108421;1271;22897;-74
2024/03/26 09:11:37;;;;;;;3.40;2.80;;;;;;;18.20;38.16;95772.59;108339;1272;25424;-74
2024/03/26 09:14:08;;;;;;;4.30;2.50;;;;;;;17.62;38.61;95771.44;108390;1277;25441;-73
2024/03/26 09:16:39;;;;;;;2.20;1.50;;;;;;;17.27;39.79;95768.34;108403;1277;25425;-73
2024/03/26 09:19:10;;;;;;;4.20;1.90;;;;;;;17.23;40.14;95774.20;108389;1277;25272;-74
2024/03/26 09:21:41;;;;;;;2.50;1.70;;;;;;;16.87;39.72;95770.64;108430;1277;22519;-74
2024/03/26 09:24:14;;;;;;;2.80;1.60;;;;;;;16.26;39.62;95767.17;108371;1277;26781;-73
2024/03/26 09:26:45;;;;;;;2.10;1.20;;;;;;;15.47;39.61;95769.15;108392;1277;25429;-74
2024/03/26 09:29:18;;;;;;;2.50;1.90;;;;;;;15.02;40.64;95768.40;108372;1277;22538;-73
2024/03/26 09:31:49;;;;;;;2.60;1.70;;;;;;;14.85;41.06;95769.16;108367;1278;22541;-73
2024/03/26 09:34:24;;;;;;;2.70;1.90;;;;;;;14.85;41.46;95767.44;108375;1278;22561;-73
2024/03/26 09:36:57;;;;;;;4.00;2.50;;;;;;;14.67;41.50;95768.29;108379;1276;22554;-73
2024/03/26 09:39:29;;;;;;;2.40;1.90;;;;;;;14.67;41.93;95766.70;108355;1274;24358;-74
2024/03/26 09:42:04;;;;;;;3.00;2.40;;;;;;;14.67;41.78;95765.02;108373;1278;25429;-74
2024/03/26 09:44:37;;;;;;;3.50;2.20;;;;;;;14.55;41.94;95760.35;108388;1279;22560;-73
2024/03/26 09:47:09;;;;;;;2.80;1.80;;;;;;;14.16;41.22;95758.05;108417;1277;22556;-74
2024/03/26 09:49:41;;;;;;;1.80;1.40;;;;;;;13.91;41.83;95749.30;108363;1278;22590;-74
2024/03/26 09:52:13;;;;;;;1.30;1.20;;;;;;;13.92;41.86;95746.52;108379;1278;22922;-74
2024/03/26 09:54:46;;;;;;;2.40;1.50;;;;;;;13.83;41.41;95742.73;108376;1274;22525;-73
2024/03/26 09:57:17;;;;;;;1.50;1.00;;;;;;;13.80;42.34;95739.21;108418;1278;23883;-74
2024/03/26 09:59:49;;;;;;;2.50;1.20;;;;;;;13.90;42.29;95736.71;108382;1279;22530;-74
2024/03/26 10:02:21;;;;;;;2.60;1.90;;;;;;;14.00;43.01;95737.81;108372;1272;22526;-74
2024/03/26 10:04:56;;;;;;;6.10;2.30;;;;;;;14.13;42.68;95732.85;108338;1278;22521;-74
2024/03/26 10:07:30;;;;;;;1.60;1.40;;;;;;;14.12;43.07;95732.17;108401;1271;22522;-74
2024/03/26 10:10:06;;;;;;;2.00;1.40;;;;;;;14.21;42.99;95722.92;108405;1278;22525;-73
2024/03/26 10:12:43;;;;;;;1.70;1.30;;;;;;;14.22;42.93;95718.73;108424;1278;26306;-74
2024/03/26 10:15:18;;;;;;;1.60;1.10;;;;;;;14.18;42.17;95723.57;108417;1278;25106;-74
2024/03/26 10:17:51;;;;;;;1.20;1.00;;;;;;;13.76;40.70;95715.44;108418;1278;22517;-74
2024/03/26 10:20:23;;;;;;;1.50;0.80;;;;;;;13.55;41.34;95715.61;108412;1277;22651;-74
2024/03/26 10:23:00;;;;;;;0.70;0.60;;;;;;;13.54;41.78;95717.17;108379;1278;22536;-74
2024/03/26 10:25:31;;;;;;;2.10;1.00;;;;;;;13.32;39.66;95719.64;108368;1279;22530;-74
2024/03/26 10:28:07;;;;;;;2.00;1.00;;;;;;;13.07;40.79;95720.47;108367;1278;24405;-74
2024/03/26 10:30:41;;;;;;;1.90;1.00;;;;;;;13.20;40.64;95726.73;108377;1278;25227;-74
2024/03/26 10:33:15;;;;;;;1.70;0.80;;;;;;;13.03;39.44;95725.40;108358;1278;23881;-74
2024/03/26 10:35:53;;;;;;;1.60;0.90;;;;;;;12.90;39.81;95725.47;108383;1279;23501;-74
2024/03/26 10:38:25;;;;;;;1.20;0.90;;;;;;;12.84;39.34;95721.26;108391;1278;23887;-74
2024/03/26 10:41:03;;;;;;;0.60;0.60;;;;;;;12.85;40.00;95720.27;108415;1278;25490;-74
2024/03/26 10:43:35;;;;;;;1.50;0.80;;;;;;;12.95;40.61;95720.30;108381;1278;22530;-74
2024/03/26 10:46:08;;;;;;;2.10;0.90;;;;;;;13.00;40.32;95717.55;108369;1279;22542;-74
2024/03/26 10:48:45;;;;;;;0.70;0.60;;;;;;;12.93;39.09;95713.45;108456;1278;22514;-74
2024/03/26 10:51:22;;;;;;;1.80;0.70;;;;;;;12.73;39.39;95715.84;108393;1278;22540;-74
2024/03/26 10:53:56;;;;;;;1.70;1.00;;;;;;;12.62;38.86;95714.17;108366;1278;22533;-74
2024/03/26 10:56:29;;;;;;;1.40;0.80;;;;;;;12.55;39.53;95708.73;108402;1279;26456;-74
2024/03/26 10:59:02;;;;;;;1.40;0.80;;;;;;;12.53;38.00;95709.48;108388;1278;25386;-74
2024/03/26 11:01:36;;;;;;;1.10;1.00;;;;;;;12.36;37.63;95714.66;108402;1278;22518;-74
2024/03/26 11:04:12;;;;;;;1.40;0.90;;;;;;;12.17;38.07;95714.54;108356;1277;22530;-74
2024/03/26 11:06:49;;;;;;;1.00;0.70;;;;;;;12.13;38.09;95716.91;108307;1278;22954;-74
2024/03/26 11:09:20;;;;;;;0.90;0.70;;;;;;;12.21;37.75;95714.72;108272;1276;24240;-74
2024/03/26 11:11:52;;;;;;;0.80;0.60;;;;;;;12.09;37.89;95716.36;108257;1271;23709;-74
2024/03/26 11:14:24;;;;;;;1.70;1.00;;;;;;;11.83;38.24;95708.94;108375;1277;23928;-74
2024/03/26 11:17:05;;;;;;;1.40;0.70;;;;;;;11.94;38.57;95708.30;108373;1271;23327;-74
2024/03/26 11:19:41;;;;;;;0.80;0.80;;;;;;;12.07;38.50;95698.57;108029;1273;22515;-74
2024/03/26 11:22:17;;;;;;;1.30;0.80;;;;;;;12.15;37.79;95691.38;108313;1278;22562;-75
2024/03/26 11:24:47;;;;;;;0.90;0.80;;;;;;;12.22;38.20;95693.29;108361;1278;25271;-75
2024/03/26 11:27:21;;;;;;;1.80;1.00;;;;;;;12.33;38.21;95692.95;108266;1271;25334;-73
2024/03/26 11:29:57;;;;;;;1.20;0.60;;;;;;;12.37;37.28;95690.60;108304;1278;22673;-74
2024/03/26 11:32:33;;;;;;;1.80;0.80;;;;;;;12.29;36.64;95688.27;108384;1271;23848;-74
2024/03/26 11:35:28;;;;;;;0.70;0.60;;;;;;;12.32;37.90;95686.83;108379;1278;22529;-72
2024/03/26 11:38:02;;;;;;;1.60;0.60;;;;;;;12.39;37.37;95681.15;108387;1277;22532;-72
2024/03/26 11:40:38;;;;;;;0.90;0.80;;;;;;;12.41;37.48;95682.75;108408;1272;22528;-72
2024/03/26 11:43:12;;;;;;;2.50;0.70;;;;;;;12.38;37.28;95678.52;108288;1277;24370;-72
2024/03/26 11:45:43;;;;;;;0.90;0.60;;;;;;;12.31;35.87;95673.63;108393;1271;22521;-72
2024/03/26 11:48:20;;;;;;;2.00;0.90;;;;;;;12.32;37.21;95667.54;108389;1277;22545;-72
2024/03/26 11:50:56;;;;;;;1.70;0.50;;;;;;;12.50;37.23;95666.52;108429;1278;23252;-72
2024/03/26 11:53:27;;;;;;;1.10;0.90;;;;;;;12.52;36.23;95662.48;108388;1278;22526;-72
2024/03/26 11:56:00;;;;;;;1.10;0.70;;;;;;;12.64;37.50;95665.98;108183;1276;25893;-72